Terminal Aerodrome Forecast
Issued by NWS

Home | Current Version | Previous Version | Text Only | Print | Product List | Glossary On
Versions: 1 2 3 4 5 6 7 8 9 10 11 12
000
FTUS44 KJAN 282340
TAFGTR
TAF
KGTR 282340Z 2900/2924 VRB04KT P6SM SCT040 BKN080
     FM291100 12008KT P6SM BKN030 BKN050
     FM291700 16013G22KT P6SM SCT030 BKN050=

USA.gov is the U.S. government's official web portal to all federal, state and local government web resources and services.